createdAt,value
2023-02-05T00:00:21.646Z,101803.63
2023-02-05T00:02:48.411Z,101799.59
2023-02-05T00:05:15.406Z,101802.53
2023-02-05T00:10:08.206Z,101805.97
2023-02-05T00:12:34.949Z,101805.88
2023-02-05T00:15:01.710Z,101794.19
2023-02-05T00:17:28.829Z,101796.75
2023-02-05T00:19:55.776Z,101800.41
2023-02-05T00:22:22.856Z,101799.94
2023-02-05T00:24:50.280Z,101803.50
2023-02-05T00:27:17.552Z,101797.91
2023-02-05T00:29:44.239Z,101811.66
2023-02-05T00:32:11.564Z,101807.38
2023-02-05T00:34:38.236Z,101809.25
2023-02-05T00:37:04.891Z,101800.53
2023-02-05T00:39:31.556Z,101799.94
2023-02-05T00:42:01.793Z,101801.09
2023-02-05T00:44:28.591Z,101800.41
2023-02-05T00:46:55.450Z,101805.53
2023-02-05T00:49:22.124Z,101797.75
2023-02-05T00:51:48.781Z,101796.69
2023-02-05T00:54:15.571Z,101795.25
2023-02-05T00:56:46.467Z,101802.59
2023-02-05T00:59:13.202Z,101798.06
2023-02-05T01:01:40.083Z,101794.63
2023-02-05T01:04:06.860Z,101798.09
2023-02-05T01:06:33.560Z,101790.06
2023-02-05T01:09:00.235Z,101788.47
2023-02-05T01:11:26.906Z,101798.16
2023-02-05T01:13:53.581Z,101797.22
2023-02-05T01:16:20.255Z,101797.97
2023-02-05T01:18:46.919Z,101793.34
2023-02-05T01:21:13.643Z,101791.41
2023-02-05T01:23:40.577Z,101789.66
2023-02-05T01:26:07.293Z,101794.09
2023-02-05T01:28:34.016Z,101791.69
2023-02-05T01:31:00.820Z,101789.84
2023-02-05T01:33:27.545Z,101784.56
2023-02-05T01:35:54.230Z,101776.66
2023-02-05T01:38:21.074Z,101767.75
2023-02-05T01:40:47.885Z,101764.75
2023-02-05T01:43:18.207Z,101770.88
2023-02-05T01:45:57.982Z,101768.47
2023-02-05T01:48:29.671Z,101764.91
2023-02-05T01:51:02.219Z,101760.19
2023-02-05T01:53:33.769Z,101746.59
2023-02-05T01:56:04.488Z,101739.28
2023-02-05T01:58:36.093Z,101742.47
2023-02-05T02:01:02.860Z,101744.50
2023-02-05T02:03:31.583Z,101737.50
2023-02-05T02:05:58.649Z,101738.06
2023-02-05T02:08:25.960Z,101736.25
2023-02-05T02:10:57.073Z,101739.22
2023-02-05T02:13:27.274Z,101747.28
2023-02-05T02:15:55.362Z,101740.81
2023-02-05T02:18:28.820Z,101735.19
2023-02-05T02:21:16.644Z,101732.25
2023-02-05T02:24:01.315Z,101733.16
2023-02-05T02:26:42.366Z,101723.84
2023-02-05T02:29:18.417Z,101718.25
2023-02-05T02:31:58.752Z,101714.69
2023-02-05T02:37:12.797Z,101704.13
2023-02-05T02:39:43.362Z,101710.81
2023-02-05T02:42:25.155Z,101706.63
2023-02-05T02:45:00.249Z,101716.25
2023-02-05T02:47:33.620Z,101710.34
2023-02-05T02:50:07.112Z,101709.66
2023-02-05T02:52:37.778Z,101699.88
2023-02-05T02:55:09.663Z,101704.75
2023-02-05T02:57:40.095Z,101697.94
2023-02-05T03:00:13.607Z,101699.41
2023-02-05T03:02:44.371Z,101697.16
2023-02-05T03:05:18.554Z,101691.81
2023-02-05T03:07:50.641Z,101689.09
2023-02-05T03:10:26.548Z,101690.97
2023-02-05T03:12:55.505Z,101693.03
2023-02-05T03:15:23.045Z,101691.88
2023-02-05T03:17:52.382Z,101685.34
2023-02-05T03:20:37.289Z,101691.81
2023-02-05T03:23:03.980Z,101684.97
2023-02-05T03:25:30.905Z,101687.53
2023-02-05T03:27:58.842Z,101674.78
2023-02-05T03:30:33.239Z,101670.38
2023-02-05T03:33:19.173Z,101677.84
2023-02-05T03:36:15.217Z,101672.00
2023-02-05T03:38:43.901Z,101666.88
2023-02-05T03:44:15.673Z,101661.06
2023-02-05T03:46:49.347Z,101654.03
2023-02-05T03:49:43.751Z,101652.53
2023-02-05T03:52:22.696Z,101644.69
2023-02-05T03:54:58.374Z,101643.16
2023-02-05T03:57:43.937Z,101647.44
2023-02-05T04:00:11.958Z,101660.59
2023-02-05T04:02:38.764Z,101659.91
2023-02-05T04:05:09.225Z,101661.94
2023-02-05T04:07:36.086Z,101659.13
2023-02-05T04:10:02.875Z,101659.75
2023-02-05T04:12:33.205Z,101658.97
2023-02-05T04:15:00.140Z,101659.84
2023-02-05T04:17:27.038Z,101649.44
2023-02-05T04:19:53.803Z,101657.81
2023-02-05T04:22:20.502Z,101657.75
2023-02-05T04:24:47.183Z,101655.56
2023-02-05T04:27:15.842Z,101654.25
2023-02-05T04:29:43.381Z,101653.69
2023-02-05T04:32:10.038Z,101645.78
2023-02-05T04:34:36.717Z,101645.78
2023-02-05T04:37:03.609Z,101649.97
2023-02-05T04:39:30.392Z,101646.91
2023-02-05T04:41:57.152Z,101655.84
2023-02-05T04:44:24.091Z,101656.47
2023-02-05T04:46:58.670Z,101655.22
2023-02-05T04:49:25.872Z,101665.81
2023-02-05T04:51:52.734Z,101660.53
2023-02-05T04:54:19.509Z,101659.97
2023-02-05T04:56:49.612Z,101660.97
2023-02-05T04:59:16.430Z,101666.63
2023-02-05T05:01:43.140Z,101658.66
2023-02-05T05:04:10.068Z,101663.16
2023-02-05T05:06:36.742Z,101654.75
2023-02-05T05:09:03.505Z,101657.72
2023-02-05T05:11:30.312Z,101654.31
2023-02-05T05:13:58.059Z,101662.81
2023-02-05T05:16:25.000Z,101670.13
2023-02-05T05:18:53.251Z,101667.00
2023-02-05T05:21:20.027Z,101663.09
2023-02-05T05:23:46.731Z,101647.78
2023-02-05T05:26:13.807Z,101643.84
2023-02-05T05:28:40.559Z,101653.59
2023-02-05T05:31:21.863Z,101650.34
2023-02-05T05:33:48.955Z,101647.09
2023-02-05T05:36:16.352Z,101652.66
2023-02-05T05:38:43.098Z,101640.09
2023-02-05T05:41:38.446Z,101631.53
2023-02-05T05:44:05.489Z,101630.59
2023-02-05T05:46:35.570Z,101629.38
2023-02-05T05:49:03.774Z,101628.94
2023-02-05T05:51:32.797Z,101636.03
2023-02-05T05:53:59.637Z,101624.63
2023-02-05T05:56:26.384Z,101623.34
2023-02-05T05:58:53.232Z,101624.63
2023-02-05T06:01:22.349Z,101623.63
2023-02-05T06:03:49.867Z,101632.47
2023-02-05T06:06:16.717Z,101627.34
2023-02-05T06:08:43.466Z,101619.97
2023-02-05T06:11:10.652Z,101631.28
2023-02-05T06:13:38.492Z,101624.47
2023-02-05T06:16:09.260Z,101625.50
2023-02-05T06:18:36.411Z,101625.84
2023-02-05T06:21:13.712Z,101623.69
2023-02-05T06:23:40.368Z,101629.59
2023-02-05T06:26:07.148Z,101635.03
2023-02-05T06:28:33.891Z,101620.63
2023-02-05T06:31:00.940Z,101631.03
2023-02-05T06:33:27.649Z,101630.19
2023-02-05T06:35:54.836Z,101629.94
2023-02-05T06:38:21.580Z,101633.75
2023-02-05T06:40:49.084Z,101629.25
2023-02-05T06:43:15.948Z,101629.44
2023-02-05T06:45:43.450Z,101620.69
2023-02-05T06:48:10.225Z,101626.84
2023-02-05T06:50:36.956Z,101619.72
2023-02-05T06:53:07.202Z,101623.97
2023-02-05T06:55:34.352Z,101630.53
2023-02-05T06:58:01.298Z,101631.31
2023-02-05T07:00:28.111Z,101633.00
2023-02-05T07:02:55.462Z,101623.22
2023-02-05T07:05:22.286Z,101631.91
2023-02-05T07:07:49.935Z,101616.44
2023-02-05T07:10:16.946Z,101609.59
2023-02-05T07:12:43.933Z,101617.22
2023-02-05T07:15:13.623Z,101615.16
2023-02-05T07:17:40.442Z,101615.75
2023-02-05T07:20:07.870Z,101607.84
2023-02-05T07:22:34.667Z,101616.22
2023-02-05T07:25:04.929Z,101608.09
2023-02-05T07:27:31.700Z,101607.00
2023-02-05T07:29:58.649Z,101600.75
2023-02-05T07:32:25.749Z,101605.63
2023-02-05T07:34:52.522Z,101601.34
2023-02-05T07:37:21.333Z,101604.69
2023-02-05T07:39:48.734Z,101597.84
2023-02-05T07:42:15.541Z,101594.97
2023-02-05T07:47:07.841Z,101598.97
2023-02-05T07:49:34.486Z,101588.38
2023-02-05T07:52:01.256Z,101588.63
2023-02-05T07:54:27.908Z,101587.84
2023-02-05T07:56:55.840Z,101577.28
2023-02-05T07:59:22.601Z,101569.94
2023-02-05T08:01:49.296Z,101571.47
2023-02-05T08:04:16.101Z,101557.97
2023-02-05T08:06:43.928Z,101545.69
2023-02-05T08:09:11.188Z,101566.47
2023-02-05T08:11:40.682Z,101567.75
2023-02-05T08:14:07.363Z,101571.69
2023-02-05T08:16:34.317Z,101568.28
2023-02-05T08:19:01.128Z,101563.94
2023-02-05T08:21:30.723Z,101564.78
2023-02-05T08:23:58.718Z,101565.06
2023-02-05T08:26:25.472Z,101554.13
2023-02-05T08:28:52.218Z,101544.00
2023-02-05T08:31:19.507Z,101548.28
2023-02-05T08:33:47.909Z,101542.19
2023-02-05T08:36:15.006Z,101541.25
2023-02-05T08:41:12.820Z,101535.50
2023-02-05T08:43:43.750Z,101530.91
2023-02-05T08:46:13.781Z,101527.78
2023-02-05T08:48:41.214Z,101521.88
2023-02-05T08:51:10.736Z,101520.97
2023-02-05T08:53:37.447Z,101517.19
2023-02-05T08:56:06.269Z,101517.56
2023-02-05T08:58:34.247Z,101513.13
2023-02-05T09:01:02.921Z,101513.38
2023-02-05T09:03:31.164Z,101507.94
2023-02-05T09:05:59.254Z,101506.28
2023-02-05T09:08:27.432Z,101517.19
2023-02-05T09:10:54.581Z,101508.53
2023-02-05T09:13:21.351Z,101509.44
2023-02-05T09:15:48.839Z,101508.81
2023-02-05T09:18:17.118Z,101498.91
2023-02-05T09:20:46.374Z,101506.66
2023-02-05T09:23:15.153Z,101513.84
2023-02-05T09:25:46.156Z,101514.19
2023-02-05T09:28:14.871Z,101500.72
2023-02-05T09:30:46.798Z,101496.91
2023-02-05T09:33:13.875Z,101505.47
2023-02-05T09:35:40.736Z,101501.03
2023-02-05T09:38:07.402Z,101491.84
2023-02-05T09:40:43.598Z,101488.34
2023-02-05T09:43:29.519Z,101487.44
2023-02-05T09:46:09.627Z,101484.75
2023-02-05T09:48:42.964Z,101481.28
2023-02-05T09:51:12.691Z,101489.13
2023-02-05T09:53:42.647Z,101498.84
2023-02-05T09:56:12.355Z,101502.19
2023-02-05T09:58:46.215Z,101497.63
2023-02-05T10:01:19.368Z,101485.34
2023-02-05T10:03:53.491Z,101499.13
2023-02-05T10:06:23.155Z,101492.69
2023-02-05T10:08:49.938Z,101490.63
2023-02-05T10:11:32.571Z,101488.72
2023-02-05T10:14:18.816Z,101485.91
2023-02-05T10:17:07.474Z,101478.31
2023-02-05T10:19:43.525Z,101468.63
2023-02-05T10:22:22.563Z,101472.22
2023-02-05T10:25:14.626Z,101472.84
2023-02-05T10:27:43.872Z,101462.38
2023-02-05T10:30:26.138Z,101467.22
2023-02-05T10:33:03.937Z,101466.19
2023-02-05T10:35:45.082Z,101459.63
2023-02-05T10:38:23.057Z,101458.09
2023-02-05T10:40:53.399Z,101458.34
2023-02-05T10:43:43.556Z,101444.81
2023-02-05T10:46:14.900Z,101451.47
2023-02-05T10:48:43.762Z,101446.97
2023-02-05T10:51:33.797Z,101447.25
2023-02-05T10:54:01.176Z,101444.63
2023-02-05T10:56:28.268Z,101450.69
2023-02-05T10:58:58.367Z,101443.94
2023-02-05T11:01:33.695Z,101448.22
2023-02-05T11:04:07.661Z,101431.72
2023-02-05T11:09:24.016Z,101416.34
2023-02-05T11:11:55.740Z,101409.91
2023-02-05T11:14:35.566Z,101407.78
2023-02-05T11:17:20.834Z,101412.84
2023-02-05T11:19:56.638Z,101406.09
2023-02-05T11:22:39.620Z,101406.56
2023-02-05T11:25:22.797Z,101406.06
2023-02-05T11:27:53.632Z,101403.53
2023-02-05T11:33:23.181Z,101379.16
2023-02-05T11:36:08.204Z,101362.84
2023-02-05T11:38:43.753Z,101372.47
2023-02-05T11:41:13.291Z,101373.13
2023-02-05T11:43:51.295Z,101380.22
2023-02-05T11:46:24.518Z,101372.03
2023-02-05T11:49:02.193Z,101390.41
2023-02-05T11:54:15.755Z,101393.38
2023-02-05T11:59:22.285Z,101373.94
2023-02-05T12:01:49.132Z,101370.47
2023-02-05T12:04:19.531Z,101373.00
2023-02-05T12:07:06.881Z,101366.88
2023-02-05T12:09:33.560Z,101365.59
2023-02-05T12:12:21.684Z,101364.09
2023-02-05T12:15:02.139Z,101363.25
2023-02-05T12:17:40.159Z,101356.03
2023-02-05T12:20:12.219Z,101353.34
2023-02-05T12:22:43.757Z,101353.72
2023-02-05T12:25:13.432Z,101363.97
2023-02-05T12:27:44.368Z,101364.09
2023-02-05T12:30:31.743Z,101354.97
2023-02-05T12:33:10.197Z,101356.56
2023-02-05T12:35:43.633Z,101350.94
2023-02-05T12:38:16.755Z,101353.19
2023-02-05T12:40:48.275Z,101351.06
2023-02-05T12:43:24.036Z,101345.00
2023-02-05T12:46:17.808Z,101341.38
2023-02-05T12:48:47.387Z,101341.78
2023-02-05T12:51:43.696Z,101352.44
2023-02-05T12:54:35.925Z,101341.16
2023-02-05T12:57:08.420Z,101340.88
2023-02-05T12:59:43.769Z,101342.00
2023-02-05T13:02:37.909Z,101346.88
2023-02-05T13:05:23.143Z,101347.78
2023-02-05T13:08:08.377Z,101335.84
2023-02-05T13:10:42.792Z,101338.59
2023-02-05T13:13:17.910Z,101335.22
2023-02-05T13:15:49.549Z,101338.81
2023-02-05T13:18:26.276Z,101336.47
2023-02-05T13:21:19.726Z,101333.50
2023-02-05T13:24:06.952Z,101324.81
2023-02-05T13:26:43.714Z,101334.56
2023-02-05T13:29:14.141Z,101326.34
2023-02-05T13:31:43.643Z,101330.81
2023-02-05T13:34:15.413Z,101334.16
2023-02-05T13:36:42.897Z,101339.91
2023-02-05T13:39:43.710Z,101337.78
2023-02-05T13:42:39.486Z,101341.78
2023-02-05T13:48:20.166Z,101345.66
2023-02-05T13:50:47.525Z,101342.56
2023-02-05T13:53:43.708Z,101350.31
2023-02-05T13:56:39.819Z,101347.97
2023-02-05T13:59:20.540Z,101331.44
2023-02-05T14:01:57.993Z,101343.53
2023-02-05T14:04:46.418Z,101341.63
2023-02-05T14:07:24.726Z,101349.78
2023-02-05T14:09:57.151Z,101354.56
2023-02-05T14:12:43.887Z,101358.16
2023-02-05T14:15:16.982Z,101347.22
2023-02-05T14:17:52.590Z,101355.81
2023-02-05T14:20:25.260Z,101353.03
2023-02-05T14:23:01.209Z,101357.06
2023-02-05T14:25:44.948Z,101358.56
2023-02-05T14:28:17.633Z,101367.25
2023-02-05T14:30:59.606Z,101366.72
2023-02-05T14:33:37.801Z,101376.31
2023-02-05T14:36:25.978Z,101381.25
2023-02-05T14:39:27.344Z,101368.25
2023-02-05T14:41:58.969Z,101355.19
2023-02-05T14:44:31.514Z,101372.16
2023-02-05T14:47:04.989Z,101368.56
2023-02-05T14:49:34.542Z,101375.56
2023-02-05T14:52:23.529Z,101378.00
2023-02-05T14:55:05.452Z,101376.19
2023-02-05T14:57:42.741Z,101380.00
2023-02-05T15:00:21.685Z,101387.97
2023-02-05T15:02:51.570Z,101394.03
2023-02-05T15:05:40.872Z,101401.75
2023-02-05T15:08:21.177Z,101396.03
2023-02-05T15:10:50.359Z,101392.94
2023-02-05T15:13:19.707Z,101390.41
2023-02-05T15:16:11.682Z,101387.03
2023-02-05T15:18:44.142Z,101384.38
2023-02-05T15:21:39.902Z,101390.19
2023-02-05T15:24:15.357Z,101381.63
2023-02-05T15:26:42.761Z,101403.34
2023-02-05T15:29:13.952Z,101411.72
2023-02-05T15:31:44.747Z,101412.78
2023-02-05T15:34:33.020Z,101427.72
2023-02-05T15:37:10.834Z,101429.13
2023-02-05T15:39:43.965Z,101423.09
2023-02-05T15:42:18.528Z,101424.44
2023-02-05T15:44:45.458Z,101431.53
2023-02-05T15:47:24.528Z,101441.75
2023-02-05T15:49:58.399Z,101446.41
2023-02-05T15:52:28.081Z,101452.28
2023-02-05T15:54:57.242Z,101448.91
2023-02-05T15:57:29.830Z,101455.53
2023-02-05T15:59:59.907Z,101460.94
2023-02-05T16:02:31.088Z,101463.44
2023-02-05T16:05:07.653Z,101467.00
2023-02-05T16:10:16.539Z,101481.72
2023-02-05T16:13:07.457Z,101472.50
2023-02-05T16:15:44.233Z,101476.50
2023-02-05T16:18:43.718Z,101476.50
2023-02-05T16:21:25.854Z,101487.88
2023-02-05T16:23:58.061Z,101496.97
2023-02-05T16:29:47.676Z,101515.38
2023-02-05T16:32:28.372Z,101512.78
2023-02-05T16:34:55.518Z,101524.81
2023-02-05T16:37:27.496Z,101535.72
2023-02-05T16:39:55.971Z,101532.00
2023-02-05T16:42:39.628Z,101536.53
2023-02-05T16:45:09.337Z,101533.53
2023-02-05T16:47:36.993Z,101548.38
2023-02-05T16:50:39.965Z,101531.19
2023-02-05T16:53:37.891Z,101535.97
2023-02-05T16:56:36.129Z,101532.59
2023-02-05T16:59:05.559Z,101530.69
2023-02-05T17:01:44.200Z,101531.81
2023-02-05T17:04:31.710Z,101539.88
2023-02-05T17:07:01.141Z,101539.50
2023-02-05T17:09:39.801Z,101541.13
2023-02-05T17:12:27.209Z,101546.50
2023-02-05T17:15:16.076Z,101537.69
2023-02-05T17:17:44.997Z,101537.78
2023-02-05T17:20:17.845Z,101532.00
2023-02-05T17:23:05.816Z,101543.69
2023-02-05T17:25:36.992Z,101541.34
2023-02-05T17:28:08.281Z,101537.69
2023-02-05T17:30:35.351Z,101537.75
2023-02-05T17:33:07.075Z,101537.31
2023-02-05T17:35:34.130Z,101543.69
2023-02-05T17:38:01.171Z,101544.94
2023-02-05T17:40:28.303Z,101552.06
2023-02-05T17:42:56.220Z,101550.44
2023-02-05T17:45:30.968Z,101558.72
2023-02-05T17:47:57.654Z,101556.78
2023-02-05T17:50:24.865Z,101565.41
2023-02-05T17:52:52.802Z,101562.38
2023-02-05T17:55:23.448Z,101557.25
2023-02-05T17:57:50.261Z,101545.91
2023-02-05T18:00:21.534Z,101546.03
2023-02-05T18:02:48.407Z,101547.50
2023-02-05T18:05:19.237Z,101550.25
2023-02-05T18:07:54.472Z,101558.34
2023-02-05T18:10:28.294Z,101564.66
2023-02-05T18:12:57.231Z,101559.16
2023-02-05T18:15:25.357Z,101564.66
2023-02-05T18:17:52.962Z,101563.44
2023-02-05T18:20:23.403Z,101579.53
2023-02-05T18:22:50.509Z,101587.03
2023-02-05T18:25:18.946Z,101588.44
2023-02-05T18:27:48.224Z,101587.59
2023-02-05T18:30:24.377Z,101586.09
2023-02-05T18:32:51.933Z,101594.69
2023-02-05T18:35:18.840Z,101608.16
2023-02-05T18:37:45.494Z,101603.78
2023-02-05T18:40:14.820Z,101609.50
2023-02-05T18:45:09.078Z,101617.59
2023-02-05T18:47:36.242Z,101624.25
2023-02-05T18:50:02.997Z,101628.72
2023-02-05T18:52:30.650Z,101621.22
2023-02-05T18:54:57.825Z,101631.91
2023-02-05T18:57:24.579Z,101641.13
2023-02-05T18:59:51.388Z,101645.53
2023-02-05T19:02:18.113Z,101649.59
2023-02-05T19:04:46.095Z,101653.41
2023-02-05T19:07:12.878Z,101644.13
2023-02-05T19:09:39.702Z,101648.84
2023-02-05T19:12:06.675Z,101644.63
2023-02-05T19:14:34.178Z,101644.50
2023-02-05T19:17:01.351Z,101644.88
2023-02-05T19:19:30.046Z,101639.56
2023-02-05T19:22:09.306Z,101642.97
2023-02-05T19:24:37.557Z,101636.63
2023-02-05T19:27:04.676Z,101647.50
2023-02-05T19:29:39.783Z,101659.34
2023-02-05T19:32:08.011Z,101665.69
2023-02-05T19:34:38.959Z,101675.94
2023-02-05T19:37:11.855Z,101672.63
2023-02-05T19:39:39.266Z,101681.81
2023-02-05T19:42:09.287Z,101683.88
2023-02-05T19:44:39.431Z,101690.13
2023-02-05T19:47:06.560Z,101692.59
2023-02-05T19:49:38.881Z,101680.88
2023-02-05T19:52:10.062Z,101678.97
2023-02-05T19:54:37.010Z,101672.63
2023-02-05T19:57:04.080Z,101665.72
2023-02-05T19:59:30.823Z,101667.81
2023-02-05T20:01:58.076Z,101667.06
2023-02-05T20:04:29.063Z,101662.47
2023-02-05T20:07:00.593Z,101655.84
2023-02-05T20:09:28.352Z,101653.22
2023-02-05T20:11:56.037Z,101645.56
2023-02-05T20:14:24.010Z,101649.50
2023-02-05T20:16:52.380Z,101640.75
2023-02-05T20:19:27.691Z,101648.78
2023-02-05T20:21:56.982Z,101660.06
2023-02-05T20:24:24.392Z,101662.41
2023-02-05T20:26:53.145Z,101662.88
2023-02-05T20:32:11.810Z,101662.09
2023-02-05T20:37:09.828Z,101666.28
2023-02-05T20:39:39.808Z,101676.69
2023-02-05T20:42:15.817Z,101678.97
2023-02-05T20:44:44.045Z,101687.66
2023-02-05T20:47:14.022Z,101701.88
2023-02-05T20:52:09.947Z,101699.41
2023-02-05T20:54:37.031Z,101703.75
2023-02-05T20:57:04.699Z,101704.34
2023-02-05T20:59:34.668Z,101705.94
2023-02-05T21:02:02.716Z,101711.16
2023-02-05T21:04:30.249Z,101726.88
2023-02-05T21:06:58.597Z,101725.25
2023-02-05T21:09:25.805Z,101722.22
2023-02-05T21:11:55.757Z,101721.19
2023-02-05T21:14:23.396Z,101731.97
2023-02-05T21:16:50.367Z,101736.72
2023-02-05T21:19:18.692Z,101734.75
2023-02-05T21:21:46.175Z,101740.69
2023-02-05T21:24:14.892Z,101743.72
2023-02-05T21:26:43.956Z,101744.00
2023-02-05T21:29:16.926Z,101742.97
2023-02-05T21:31:49.564Z,101741.94
2023-02-05T21:34:19.695Z,101753.66
2023-02-05T21:36:48.378Z,101751.78
2023-02-05T21:39:20.299Z,101754.16
2023-02-05T21:41:47.960Z,101756.03
2023-02-05T21:44:21.885Z,101759.81
2023-02-05T21:46:48.637Z,101767.50
2023-02-05T21:49:15.648Z,101780.28
2023-02-05T21:54:09.074Z,101781.03
2023-02-05T21:56:38.485Z,101784.16
2023-02-05T21:59:05.476Z,101788.41
2023-02-05T22:01:34.585Z,101791.84
2023-02-05T22:04:08.444Z,101783.88
2023-02-05T22:06:36.269Z,101802.22
2023-02-05T22:09:11.923Z,101794.31
2023-02-05T22:11:39.583Z,101799.13
2023-02-05T22:14:06.862Z,101793.16
2023-02-05T22:16:35.848Z,101803.56
2023-02-05T22:19:04.296Z,101801.69
2023-02-05T22:21:35.058Z,101795.59
2023-02-05T22:24:03.220Z,101806.31
2023-02-05T22:26:36.886Z,101808.69
2023-02-05T22:29:06.329Z,101806.44
2023-02-05T22:31:33.574Z,101818.06
2023-02-05T22:34:00.571Z,101813.31
2023-02-05T22:36:30.590Z,101815.34
2023-02-05T22:38:58.135Z,101826.13
2023-02-05T22:41:27.627Z,101827.63
2023-02-05T22:43:56.236Z,101822.13
2023-02-05T22:46:25.783Z,101831.63
2023-02-05T22:48:54.158Z,101821.75
2023-02-05T22:51:25.451Z,101817.03
2023-02-05T22:53:53.467Z,101823.19
2023-02-05T22:56:20.219Z,101834.63
2023-02-05T22:58:48.101Z,101826.56
2023-02-05T23:01:16.789Z,101831.69
2023-02-05T23:03:44.085Z,101821.56
2023-02-05T23:06:12.510Z,101824.22
2023-02-05T23:08:39.887Z,101824.22
2023-02-05T23:11:09.112Z,101821.00
2023-02-05T23:16:46.378Z,101825.66
2023-02-05T23:19:19.757Z,101825.94
2023-02-05T23:21:47.950Z,101836.56
2023-02-05T23:24:15.504Z,101834.47
2023-02-05T23:26:45.071Z,101837.31
2023-02-05T23:29:14.278Z,101848.09
2023-02-05T23:31:41.351Z,101847.25
2023-02-05T23:34:08.350Z,101855.09
2023-02-05T23:36:35.436Z,101858.34
2023-02-05T23:39:02.191Z,101861.75
2023-02-05T23:41:37.909Z,101864.50
2023-02-05T23:44:08.044Z,101860.22
2023-02-05T23:46:35.643Z,101863.81
2023-02-05T23:49:02.820Z,101876.16
2023-02-05T23:51:29.577Z,101878.63
2023-02-05T23:53:56.430Z,101872.91
2023-02-05T23:56:23.395Z,101873.69
2023-02-05T23:58:50.177Z,101869.59
